Time;durP1;ratioP1;P1;durP2;ratioP2;P2;SDS_P1;SDS_P2;PMS_P1;PMS_P2;Temp;Humidity;BMP_temperature;BMP_pressure;BME280_temperature;BME280_humidity;BME280_pressure;Samples;Min_cycle;Max_cycle;Signal;HPM_P1;HPM_P2
2023/12/03 00:01:38;;;;;;;31.40;23.73;;;;;;;0.05;91.50;101024.16;7395680;19;20377;-59
2023/12/03 00:04:04;;;;;;;29.63;22.90;;;;;;;0.09;91.74;101025.63;7397384;19;20355;-59
2023/12/03 00:06:31;;;;;;;30.98;23.58;;;;;;;0.09;91.44;101016.97;7394853;19;20904;-58
2023/12/03 00:08:59;;;;;;;31.45;23.88;;;;;;;0.11;91.72;101025.53;7396429;19;20896;-58
2023/12/03 00:11:25;;;;;;;29.83;23.83;;;;;;;0.12;91.44;101024.59;7397258;19;20905;-57
2023/12/03 00:13:54;;;;;;;31.30;22.95;;;;;;;0.14;91.21;101025.31;7395984;19;20380;-58
2023/12/03 00:16:21;;;;;;;30.10;23.08;;;;;;;0.12;90.92;101025.41;7393548;19;20436;-58
2023/12/03 00:18:48;;;;;;;29.02;23.00;;;;;;;0.10;90.95;101018.63;7396010;19;20400;-59
2023/12/03 00:21:15;;;;;;;28.35;21.80;;;;;;;0.09;90.99;101024.81;7397226;19;20683;-58
2023/12/03 00:23:41;;;;;;;28.85;22.63;;;;;;;0.08;90.89;101021.31;7395837;19;20353;-60
2023/12/03 00:26:08;;;;;;;29.65;22.52;;;;;;;0.07;91.27;101013.63;7397071;19;20378;-57
2023/12/03 00:28:35;;;;;;;28.08;22.30;;;;;;;0.07;91.19;101013.63;7396350;19;20363;-57
2023/12/03 00:31:02;;;;;;;29.25;22.98;;;;;;;0.09;91.12;101017.81;7394345;19;20755;-56
2023/12/03 00:33:29;;;;;;;28.70;21.80;;;;;;;0.12;91.21;101021.97;7395082;19;20367;-57
2023/12/03 00:35:59;;;;;;;27.13;21.55;;;;;;;0.13;91.15;101013.22;7394276;19;20385;-60
2023/12/03 00:38:26;;;;;;;27.45;20.98;;;;;;;0.15;91.01;101016.53;7394146;19;20373;-57
2023/12/03 00:40:52;;;;;;;26.67;20.17;;;;;;;0.15;90.96;101014.78;7394961;19;20354;-57
2023/12/03 00:43:19;;;;;;;24.67;20.00;;;;;;;0.16;91.05;101021.66;7394976;19;20367;-58
2023/12/03 00:45:46;;;;;;;26.00;20.73;;;;;;;0.18;90.84;101026.81;7395049;19;20420;-58
2023/12/03 00:48:13;;;;;;;25.80;19.05;;;;;;;0.17;90.88;101027.72;7395618;19;20385;-53
2023/12/03 00:50:40;;;;;;;23.97;18.83;;;;;;;0.17;90.52;101020.75;7393073;19;20893;-59
2023/12/03 00:53:07;;;;;;;23.52;18.33;;;;;;;0.16;90.45;101026.06;7395222;19;20341;-58
2023/12/03 00:55:34;;;;;;;22.25;17.90;;;;;;;0.15;90.48;101032.19;7393108;19;20364;-59
2023/12/03 00:58:00;;;;;;;23.55;18.20;;;;;;;0.11;90.50;101030.75;7395196;19;20357;-60
2023/12/03 01:00:27;;;;;;;23.35;18.67;;;;;;;0.09;90.17;101037.84;7393000;19;20352;-59
2023/12/03 01:02:54;;;;;;;23.60;19.20;;;;;;;0.07;90.42;101034.50;7394120;19;20356;-60
2023/12/03 01:05:21;;;;;;;22.42;18.52;;;;;;;0.05;90.79;101036.38;7392426;19;20714;-58
2023/12/03 01:07:48;;;;;;;23.80;18.05;;;;;;;0.05;90.55;101036.38;7393570;19;20379;-59
2023/12/03 01:10:15;;;;;;;22.98;18.20;;;;;;;0.05;90.80;101033.75;7393724;19;21158;-59
2023/12/03 01:12:42;;;;;;;25.05;19.10;;;;;;;0.05;90.52;101036.38;7393751;19;20375;-59
2023/12/03 01:15:09;;;;;;;23.45;18.35;;;;;;;0.04;90.89;101042.50;7391294;19;20376;-59
2023/12/03 01:17:36;;;;;;;22.63;18.00;;;;;;;0.02;90.96;101036.53;7393508;19;20353;-58
2023/12/03 01:20:04;;;;;;;23.80;19.17;;;;;;;0.03;90.69;101040.84;7393867;19;20357;-59
2023/12/03 01:22:31;;;;;;;22.48;18.25;;;;;;;0.03;90.96;101043.44;7393096;19;20382;-60
2023/12/03 01:24:57;;;;;;;24.27;19.03;;;;;;;-0.02;91.04;101044.56;7394148;19;20364;-58
2023/12/03 01:27:24;;;;;;;24.60;19.10;;;;;;;-0.01;91.21;101046.22;7393783;19;20360;-60
2023/12/03 01:29:51;;;;;;;25.10;19.05;;;;;;;-0.02;91.18;101041.97;7391917;19;20368;-60
2023/12/03 01:32:18;;;;;;;26.80;19.67;;;;;;;-0.02;91.58;101047.19;7394164;19;20868;-60
2023/12/03 01:34:44;;;;;;;24.77;19.25;;;;;;;-0.02;91.66;101057.63;7392238;19;20408;-60
2023/12/03 01:37:11;;;;;;;25.73;19.98;;;;;;;-0.05;91.54;101052.56;7390834;19;20345;-60
2023/12/03 01:39:38;;;;;;;25.52;19.70;;;;;;;-0.02;91.59;101060.22;7394153;19;20361;-60
2023/12/03 01:42:05;;;;;;;28.45;21.10;;;;;;;0.00;91.91;101060.13;7392917;19;20368;-59
2023/12/03 01:44:32;;;;;;;29.60;21.55;;;;;;;0.02;91.89;101062.63;7393090;19;20381;-60
2023/12/03 01:46:59;;;;;;;28.27;21.95;;;;;;;0.04;92.06;101060.75;7393392;19;20374;-58
2023/12/03 01:49:26;;;;;;;29.40;21.55;;;;;;;0.07;92.01;101071.84;7392352;19;20392;-60
2023/12/03 01:51:54;;;;;;;29.58;21.77;;;;;;;0.10;91.98;101070.81;7391313;19;20748;-59
2023/12/03 01:54:21;;;;;;;27.55;21.17;;;;;;;0.13;92.08;101070.63;7389278;19;20368;-59
2023/12/03 01:56:48;;;;;;;30.17;22.90;;;;;;;0.13;91.86;101068.00;7392064;19;20348;-59
2023/12/03 01:59:15;;;;;;;30.83;23.42;;;;;;;0.12;91.92;101066.31;7393273;19;20475;-60
2023/12/03 02:01:42;;;;;;;33.25;24.30;;;;;;;0.13;92.11;101065.41;7389592;19;20435;-60
2023/12/03 02:04:09;;;;;;;32.57;24.73;;;;;;;0.13;92.39;101065.41;7392236;19;20377;-59
2023/12/03 02:06:36;;;;;;;34.42;25.85;;;;;;;0.16;92.31;101067.81;7393542;19;20371;-60
2023/12/03 02:09:02;;;;;;;36.58;25.98;;;;;;;0.16;92.25;101073.03;7390614;19;20431;-58
2023/12/03 02:11:30;;;;;;;35.35;26.83;;;;;;;0.18;92.48;101071.97;7391362;19;20915;-60
2023/12/03 02:13:57;;;;;;;37.03;27.25;;;;;;;0.16;92.32;101065.19;7391685;19;20376;-60
2023/12/03 02:16:24;;;;;;;37.50;27.83;;;;;;;0.19;92.59;101075.41;7392064;19;20368;-60
2023/12/03 02:18:51;;;;;;;36.47;27.50;;;;;;;0.20;92.59;101070.09;7400185;19;20372;-60
2023/12/03 02:21:18;;;;;;;36.95;27.85;;;;;;;0.24;92.69;101078.59;7397438;19;20372;-60
2023/12/03 02:23:46;;;;;;;36.88;27.38;;;;;;;0.27;92.72;101077.53;7399378;19;20364;-59
2023/12/03 02:26:13;;;;;;;36.70;27.70;;;;;;;0.31;92.74;101087.69;7398643;19;20379;-58
2023/12/03 02:28:40;;;;;;;38.00;27.23;;;;;;;0.35;92.77;101086.56;7397385;19;20364;-58
2023/12/03 02:31:07;;;;;;;35.50;26.67;;;;;;;0.38;92.64;101082.91;7397623;19;20341;-58
2023/12/03 02:33:34;;;;;;;35.78;27.58;;;;;;;0.38;92.74;101080.28;7400088;19;20365;-59
2023/12/03 02:36:01;;;;;;;38.08;27.70;;;;;;;0.40;92.66;101081.03;7399163;19;20356;-59
2023/12/03 02:38:28;;;;;;;37.63;28.98;;;;;;;0.43;92.81;101078.22;7397786;19;20352;-58
2023/12/03 02:40:58;;;;;;;37.47;28.08;;;;;;;0.47;92.80;101084.06;7399327;19;20342;-60
2023/12/03 02:43:25;;;;;;;38.38;28.17;;;;;;;0.49;92.78;101083.06;7398416;19;20388;-59
2023/12/03 02:45:52;;;;;;;39.08;28.23;;;;;;;0.50;92.77;101089.09;7396472;19;20368;-59
2023/12/03 02:48:19;;;;;;;40.53;29.33;;;;;;;0.48;92.71;101088.38;7398864;19;20359;-57
2023/12/03 02:50:46;;;;;;;39.37;29.90;;;;;;;0.47;92.71;101084.94;7397269;19;20801;-59
2023/12/03 02:53:13;;;;;;;38.05;29.35;;;;;;;0.47;92.90;101087.53;7399786;19;20360;-59
2023/12/03 02:55:39;;;;;;;41.65;30.00;;;;;;;0.46;93.15;101092.84;7397543;19;20954;-59
2023/12/03 02:58:08;;;;;;;41.58;30.77;;;;;;;0.46;93.13;101083.25;7396234;19;20356;-58
2023/12/03 03:00:35;;;;;;;41.65;31.35;;;;;;;0.48;93.21;101088.38;7397983;19;20463;-60
2023/12/03 03:03:02;;;;;;;44.17;31.83;;;;;;;0.48;92.99;101091.81;7393183;19;20361;-59
2023/12/03 03:05:28;;;;;;;42.83;32.00;;;;;;;0.47;93.17;101089.28;7396866;19;20867;-59
2023/12/03 03:07:55;;;;;;;43.57;32.73;;;;;;;0.44;93.18;101094.72;7398843;19;20364;-60
2023/12/03 03:10:22;;;;;;;41.03;32.72;;;;;;;0.43;93.53;101088.69;7398808;19;20367;-57
2023/12/03 03:12:49;;;;;;;45.25;33.05;;;;;;;0.43;93.38;101093.06;7396493;19;20436;-60
2023/12/03 03:15:15;;;;;;;44.53;33.58;;;;;;;0.44;93.65;101089.50;7396985;19;20348;-60
2023/12/03 03:17:42;;;;;;;45.08;34.05;;;;;;;0.44;93.38;101092.94;7393293;19;20385;-60
2023/12/03 03:20:09;;;;;;;45.58;33.20;;;;;;;0.45;93.68;101091.16;7397235;19;20381;-58
2023/12/03 03:22:36;;;;;;;47.30;33.30;;;;;;;0.43;93.54;101087.84;7398567;19;20875;-57
2023/12/03 03:25:04;;;;;;;44.33;33.03;;;;;;;0.46;93.69;101091.06;7397638;19;20349;-59
2023/12/03 03:27:31;;;;;;;44.55;32.60;;;;;;;0.46;93.62;101092.84;7395024;19;20381;-60
2023/12/03 03:29:57;;;;;;;43.83;32.60;;;;;;;0.47;93.79;101084.06;7394260;19;20376;-60
2023/12/03 03:32:24;;;;;;;46.15;33.75;;;;;;;0.46;93.83;101088.47;7393935;19;20352;-61
2023/12/03 03:34:51;;;;;;;45.63;32.90;;;;;;;0.47;94.08;101092.75;7396632;19;20896;-60
2023/12/03 03:37:18;;;;;;;45.90;32.72;;;;;;;0.46;93.72;101091.06;7396729;19;20772;-60
2023/12/03 03:39:44;;;;;;;44.50;32.47;;;;;;;0.45;93.81;101088.56;7396552;19;20891;-59
2023/12/03 03:42:11;;;;;;;43.67;32.25;;;;;;;0.44;94.15;101092.13;7396753;19;20372;-60
2023/12/03 03:44:38;;;;;;;45.10;33.57;;;;;;;0.45;94.22;101096.38;7395463;19;20357;-60
2023/12/03 03:47:05;;;;;;;45.15;33.28;;;;;;;0.40;94.36;101094.94;7396594;19;20386;-59
2023/12/03 03:49:32;;;;;;;48.33;34.37;;;;;;;0.38;94.16;101101.16;7396310;19;20840;-61
2023/12/03 03:52:01;;;;;;;45.42;33.17;;;;;;;0.37;94.32;101099.50;7396174;19;20369;-59
2023/12/03 03:54:28;;;;;;;46.00;33.67;;;;;;;0.36;94.21;101100.44;7395895;19;20342;-60
2023/12/03 03:56:54;;;;;;;45.75;34.08;;;;;;;0.37;94.32;101100.34;7395360;19;20353;-59
2023/12/03 03:59:21;;;;;;;48.93;34.47;;;;;;;0.36;94.57;101097.81;7395608;19;22132;-60
2023/12/03 04:01:48;;;;;;;46.17;34.85;;;;;;;0.35;94.62;101102.22;7394912;19;20356;-60
2023/12/03 04:04:15;;;;;;;46.42;34.78;;;;;;;0.35;94.76;101102.22;7397625;19;20353;-59
2023/12/03 04:06:46;;;;;;;48.47;35.53;;;;;;;0.33;94.90;101106.69;7392141;19;20368;-58
2023/12/03 04:09:13;;;;;;;46.97;34.15;;;;;;;0.32;95.12;101105.03;7396943;19;20360;-59
2023/12/03 04:11:41;;;;;;;47.78;34.88;;;;;;;0.33;95.08;101108.47;7395494;19;20364;-60
2023/12/03 04:14:12;;;;;;;46.55;34.83;;;;;;;0.32;95.16;101102.41;7393901;19;20439;-60
2023/12/03 04:16:39;;;;;;;48.40;35.40;;;;;;;0.33;95.28;101101.47;7395414;19;20365;-60
2023/12/03 04:19:06;;;;;;;45.10;34.10;;;;;;;0.34;95.03;101107.50;7393087;19;20352;-59
2023/12/03 04:21:33;;;;;;;50.13;36.08;;;;;;;0.32;95.07;101105.03;7396327;19;20829;-60
2023/12/03 04:24:00;;;;;;;46.63;35.33;;;;;;;0.32;95.41;101110.25;7393944;19;20424;-60
2023/12/03 04:26:27;;;;;;;49.95;36.08;;;;;;;0.32;95.26;101112.84;7395422;19;20955;-59
2023/12/03 04:28:54;;;;;;;49.87;35.90;;;;;;;0.32;95.50;101107.63;7395802;19;20445;-60
2023/12/03 04:31:25;;;;;;;49.40;36.80;;;;;;;0.32;95.51;101118.06;7393899;19;20399;-60
2023/12/03 04:33:55;;;;;;;49.05;37.05;;;;;;;0.33;95.61;101117.13;7393795;19;20377;-60
2023/12/03 04:36:23;;;;;;;49.53;36.88;;;;;;;0.34;95.90;101112.72;7394543;19;20353;-59
2023/12/03 04:38:51;;;;;;;49.78;36.50;;;;;;;0.33;95.96;101118.91;7391000;19;20352;-60
2023/12/03 04:41:18;;;;;;;52.35;37.38;;;;;;;0.33;95.86;101109.28;7394649;19;20364;-59
2023/12/03 04:43:45;;;;;;;51.47;37.67;;;;;;;0.35;95.95;101110.03;7395762;19;20374;-60
2023/12/03 04:46:12;;;;;;;50.50;36.92;;;;;;;0.34;96.19;101112.72;7390669;19;20896;-58
2023/12/03 04:48:40;;;;;;;50.50;37.28;;;;;;;0.35;96.17;101110.03;7394472;19;20359;-60
2023/12/03 04:51:08;;;;;;;52.33;37.67;;;;;;;0.36;96.08;101116.94;7393909;19;20368;-61
2023/12/03 04:53:34;;;;;;;53.97;38.38;;;;;;;0.34;96.10;101121.44;7394271;19;20375;-59
2023/12/03 04:56:01;;;;;;;50.97;37.65;;;;;;;0.32;96.21;101114.59;7393164;19;20362;-61
2023/12/03 04:58:28;;;;;;;52.35;37.22;;;;;;;0.34;96.27;101110.97;7392037;19;20364;-61
2023/12/03 05:00:54;;;;;;;50.53;37.45;;;;;;;0.35;96.30;101123.09;7393933;19;20867;-59
2023/12/03 05:03:22;;;;;;;51.22;37.50;;;;;;;0.36;96.42;101130.00;7393106;19;20393;-60
2023/12/03 05:05:49;;;;;;;50.00;36.45;;;;;;;0.38;96.42;101130.72;7394325;19;20363;-60
2023/12/03 05:08:15;;;;;;;49.35;36.55;;;;;;;0.40;96.43;101139.31;7394883;19;20356;-61
2023/12/03 05:10:42;;;;;;;50.65;37.50;;;;;;;0.44;96.33;101136.47;7393928;19;20373;-60
2023/12/03 05:13:09;;;;;;;54.20;37.78;;;;;;;0.45;96.45;101132.91;7394599;19;20349;-59
2023/12/03 05:15:36;;;;;;;50.35;38.08;;;;;;;0.42;96.29;101122.69;7392622;19;20340;-59
2023/12/03 05:18:03;;;;;;;51.50;37.53;;;;;;;0.47;96.24;101131.06;7392958;19;20892;-59
2023/12/03 05:20:30;;;;;;;48.13;36.22;;;;;;;0.51;96.28;101127.31;7393715;19;20368;-59
2023/12/03 05:22:57;;;;;;;50.83;38.08;;;;;;;0.52;96.30;101131.59;7394984;19;20356;-59
2023/12/03 05:25:23;;;;;;;49.67;37.28;;;;;;;0.55;96.30;101136.63;7394170;19;20855;-58
2023/12/03 05:27:50;;;;;;;52.92;36.88;;;;;;;0.58;96.31;101131.22;7393645;19;20673;-59
2023/12/03 05:30:18;;;;;;;48.40;36.20;;;;;;;0.60;96.35;101138.00;7393160;19;20369;-59
2023/12/03 05:32:44;;;;;;;51.42;37.42;;;;;;;0.64;96.44;101146.50;7392944;19;20364;-60
2023/12/03 05:35:11;;;;;;;50.00;36.72;;;;;;;0.68;96.24;101145.34;7394311;19;20368;-60
2023/12/03 05:37:39;;;;;;;49.10;38.00;;;;;;;0.69;96.12;101152.22;7394164;19;20760;-60
2023/12/03 05:40:08;;;;;;;49.58;37.05;;;;;;;0.71;96.17;101150.38;7394675;19;20505;-60
2023/12/03 05:42:35;;;;;;;51.13;38.10;;;;;;;0.73;96.16;101152.88;7393654;19;20365;-61
2023/12/03 05:45:03;;;;;;;49.25;36.72;;;;;;;0.74;96.13;101157.97;7391947;19;20424;-61
2023/12/03 05:47:31;;;;;;;50.58;38.05;;;;;;;0.76;96.13;101161.34;7394144;19;20360;-61
2023/12/03 05:50:00;;;;;;;52.75;37.70;;;;;;;0.74;96.17;101155.38;7392086;19;20364;-61
2023/12/03 05:52:27;;;;;;;49.50;37.17;;;;;;;0.76;96.16;101158.72;7392297;19;20828;-60
2023/12/03 05:54:54;;;;;;;50.97;37.38;;;;;;;0.74;95.95;101173.66;7393413;19;20955;-61
2023/12/03 05:57:21;;;;;;;49.78;37.05;;;;;;;0.74;96.16;101170.22;7393649;19;20351;-59
2023/12/03 05:59:53;;;;;;;48.78;37.10;;;;;;;0.77;96.36;101176.06;7394581;19;20691;-60
2023/12/03 06:02:20;;;;;;;49.75;38.53;;;;;;;0.77;96.08;101176.06;7392992;19;20377;-60
2023/12/03 06:04:47;;;;;;;49.35;36.92;;;;;;;0.72;96.34;101175.56;7394760;19;20364;-61
2023/12/03 06:07:14;;;;;;;47.03;36.88;;;;;;;0.76;96.33;101179.59;7392206;19;20868;-61
2023/12/03 06:09:41;;;;;;;47.92;36.90;;;;;;;0.77;96.26;101191.75;7394097;19;20360;-62
2023/12/03 06:12:08;;;;;;;49.25;37.45;;;;;;;0.77;96.19;101186.53;7392654;19;20380;-61
2023/12/03 06:14:35;;;;;;;51.55;37.83;;;;;;;0.78;96.42;101185.56;7392913;19;20845;-61
2023/12/03 06:17:02;;;;;;;49.63;37.42;;;;;;;0.78;96.19;101188.19;7393560;19;20884;-61
2023/12/03 06:19:29;;;;;;;51.17;37.05;;;;;;;0.81;96.63;101190.63;7389506;19;20368;-62
2023/12/03 06:21:57;;;;;;;47.03;35.53;;;;;;;0.82;96.60;101191.44;7393283;19;20368;-61
2023/12/03 06:27:53;;;;;;;50.65;37.50;;;;;;;0.89;96.43;101189.25;7385597;19;20742;-62
2023/12/03 06:30:20;;;;;;;48.50;37.17;;;;;;;0.88;96.59;101192.81;7390561;19;20781;-62
2023/12/03 06:32:47;;;;;;;48.75;37.22;;;;;;;0.88;96.63;101193.66;7392383;19;20381;-61
2023/12/03 06:35:15;;;;;;;51.37;37.73;;;;;;;0.90;96.62;101204.84;7390556;19;20380;-62
2023/12/03 06:37:43;;;;;;;49.33;37.67;;;;;;;0.91;96.64;101200.44;7391424;19;20376;-62
2023/12/03 06:40:10;;;;;;;51.58;38.60;;;;;;;0.88;96.67;101198.88;7390306;19;20365;-61
2023/12/03 06:42:43;;;;;;;49.40;37.47;;;;;;;0.86;96.60;101199.94;7385904;19;20367;-62
2023/12/03 06:45:11;;;;;;;51.70;37.88;;;;;;;0.85;96.92;101203.47;7389867;19;20887;-61
2023/12/03 06:47:38;;;;;;;50.50;37.55;;;;;;;0.85;96.99;101204.31;7390235;19;20360;-61
2023/12/03 06:50:06;;;;;;;51.92;37.97;;;;;;;0.85;97.05;101203.47;7388802;19;20726;-61
2023/12/03 06:52:32;;;;;;;52.08;37.83;;;;;;;0.84;96.83;101212.25;7380586;19;20372;-61
2023/12/03 06:54:59;;;;;;;55.38;38.70;;;;;;;0.84;97.48;101220.09;7389929;19;20352;-61
2023/12/03 06:57:26;;;;;;;59.42;41.40;;;;;;;0.85;97.46;101226.97;7390104;19;20364;-61
2023/12/03 06:59:53;;;;;;;55.15;39.65;;;;;;;0.85;97.41;101225.22;7388632;19;20671;-61
2023/12/03 07:02:20;;;;;;;56.05;40.30;;;;;;;0.86;97.80;101231.28;7391689;19;20416;-61
2023/12/03 07:04:46;;;;;;;56.58;41.00;;;;;;;0.84;97.79;101233.13;7397767;19;20367;-60
2023/12/03 07:07:13;;;;;;;58.80;42.55;;;;;;;0.85;98.21;101232.19;7393793;19;20450;-61
2023/12/03 07:09:40;;;;;;;62.25;42.22;;;;;;;0.82;98.52;101236.66;7395104;19;20355;-61
2023/12/03 07:12:08;;;;;;;62.40;44.65;;;;;;;0.81;98.98;101240.22;7396967;19;20364;-62
2023/12/03 07:14:35;;;;;;;63.95;44.88;;;;;;;0.84;99.18;101244.41;7398365;19;20360;-61
2023/12/03 07:17:02;;;;;;;63.95;44.22;;;;;;;0.87;99.38;101246.84;7394631;19;20758;-61
2023/12/03 07:19:29;;;;;;;60.58;42.80;;;;;;;0.88;99.56;101247.69;7395087;19;20365;-61
2023/12/03 07:21:56;;;;;;;64.95;43.85;;;;;;;0.92;99.46;101246.56;7390203;19;20344;-62
2023/12/03 07:24:22;;;;;;;63.00;44.00;;;;;;;0.94;99.60;101249.91;7396220;19;20781;-61
2023/12/03 07:26:49;;;;;;;62.28;42.22;;;;;;;0.96;99.45;101259.31;7391552;19;20456;-62
2023/12/03 07:29:19;;;;;;;63.78;44.95;;;;;;;0.99;99.43;101268.72;7392242;19;20436;-61
2023/12/03 07:31:46;;;;;;;61.28;43.20;;;;;;;1.03;99.68;101270.19;7396385;19;20376;-62
2023/12/03 07:34:13;;;;;;;60.80;43.15;;;;;;;1.04;99.53;101271.84;7397022;19;20407;-62
2023/12/03 07:36:40;;;;;;;61.60;44.10;;;;;;;1.07;99.64;101276.06;7396328;19;20418;-62
2023/12/03 07:39:08;;;;;;;61.55;43.20;;;;;;;1.07;99.60;101274.28;7396570;19;20758;-61
2023/12/03 07:41:34;;;;;;;60.63;42.42;;;;;;;1.08;99.64;101278.56;7397593;19;20419;-62
2023/12/03 07:44:01;;;;;;;60.20;43.27;;;;;;;1.14;99.59;101288.63;7396043;19;20422;-62
2023/12/03 07:46:28;;;;;;;58.35;41.58;;;;;;;1.19;99.50;101283.94;7396154;19;20360;-62
2023/12/03 07:48:55;;;;;;;63.72;43.17;;;;;;;1.24;99.28;101290.66;7395212;19;20752;-62
2023/12/03 07:51:22;;;;;;;63.17;42.55;;;;;;;1.24;99.13;101288.88;7397047;19;20337;-64
2023/12/03 07:53:49;;;;;;;62.83;42.40;;;;;;;1.28;99.24;101285.13;7396400;19;20396;-63
2023/12/03 07:56:16;;;;;;;61.85;42.38;;;;;;;1.32;99.01;101286.59;7395454;19;20344;-63
2023/12/03 07:58:43;;;;;;;62.10;41.35;;;;;;;1.37;98.98;101289.75;7393317;19;20352;-63
2023/12/03 08:01:10;;;;;;;59.22;40.97;;;;;;;1.43;98.77;101291.13;7395168;19;20365;-64
2023/12/03 08:03:37;;;;;;;60.25;41.72;;;;;;;1.42;98.60;101287.69;7392272;19;20360;-63
2023/12/03 08:06:05;;;;;;;57.70;40.85;;;;;;;1.47;98.47;101303.06;7395605;19;20368;-63
2023/12/03 08:08:31;;;;;;;59.92;41.42;;;;;;;1.50;98.25;101299.41;7394749;19;20871;-64
2023/12/03 08:10:59;;;;;;;57.72;42.45;;;;;;;1.47;98.45;101295.22;7395563;19;20934;-64
2023/12/03 08:13:26;;;;;;;56.90;41.10;;;;;;;1.55;98.30;101297.31;7395782;19;20364;-63
2023/12/03 08:15:53;;;;;;;59.97;41.30;;;;;;;1.60;98.32;101300.47;7394816;19;20381;-63
2023/12/03 08:18:20;;;;;;;58.08;40.67;;;;;;;1.63;97.95;101303.69;7392889;19;20689;-64
2023/12/03 08:20:47;;;;;;;59.13;41.97;;;;;;;1.64;97.83;101301.94;7395638;19;20377;-64
2023/12/03 08:23:14;;;;;;;60.35;41.28;;;;;;;1.66;97.61;101304.44;7396136;19;20344;-63
2023/12/03 08:25:40;;;;;;;60.50;41.22;;;;;;;1.68;97.67;101299.94;7392574;19;20356;-63
2023/12/03 08:28:07;;;;;;;55.67;39.25;;;;;;;1.71;97.75;101305.81;7393487;19;20452;-63
2023/12/03 08:30:34;;;;;;;55.28;39.42;;;;;;;1.78;97.76;101307.06;7392296;19;20428;-63
2023/12/03 08:33:01;;;;;;;53.55;39.33;;;;;;;1.83;97.40;101301.56;7393388;19;20384;-63
2023/12/03 08:35:28;;;;;;;53.92;38.50;;;;;;;1.84;97.02;101303.22;7391574;19;20360;-64
2023/12/03 08:37:55;;;;;;;52.47;37.33;;;;;;;1.87;96.89;101300.41;7389726;19;20712;-63
2023/12/03 08:40:22;;;;;;;53.28;38.40;;;;;;;1.91;96.74;101301.84;7391794;19;20432;-64
2023/12/03 08:42:49;;;;;;;53.10;38.63;;;;;;;1.96;96.46;101302.38;7390660;19;20430;-63
2023/12/03 08:45:16;;;;;;;53.92;38.55;;;;;;;2.01;96.32;101299.44;7394632;19;20352;-63
2023/12/03 08:47:43;;;;;;;54.67;38.03;;;;;;;2.08;96.60;101307.72;7391120;19;20357;-63
2023/12/03 08:50:10;;;;;;;51.45;37.75;;;;;;;2.13;95.88;101309.09;7394536;19;20392;-64
2023/12/03 08:52:37;;;;;;;53.22;37.47;;;;;;;2.16;95.73;101319.34;7393571;19;20369;-64
2023/12/03 08:55:04;;;;;;;49.72;36.67;;;;;;;2.21;95.75;101321.63;7395733;19;20910;-64
2023/12/03 08:57:31;;;;;;;51.45;38.17;;;;;;;2.22;95.10;101323.31;7390238;19;20356;-64
2023/12/03 08:59:58;;;;;;;49.33;35.72;;;;;;;2.23;95.20;101322.38;7388347;19;20369;-63
2023/12/03 09:02:25;;;;;;;49.63;35.95;;;;;;;2.25;95.37;101328.34;7389709;19;20439;-64
2023/12/03 09:04:52;;;;;;;48.45;36.03;;;;;;;2.24;94.85;101324.06;7393442;19;20371;-63
2023/12/03 09:07:19;;;;;;;49.50;35.67;;;;;;;2.21;94.51;101332.09;7390955;19;20967;-63
2023/12/03 09:09:46;;;;;;;51.72;36.38;;;;;;;2.21;94.88;101326.88;7392066;19;20360;-63
2023/12/03 09:12:15;;;;;;;50.17;36.17;;;;;;;2.21;95.16;101332.09;7390876;19;20350;-63
2023/12/03 09:14:42;;;;;;;59.85;34.75;;;;;;;2.18;94.97;101340.19;7392169;19;20863;-63
2023/12/03 09:17:09;;;;;;;50.78;34.50;;;;;;;2.15;94.73;101340.41;7393718;19;20439;-63
2023/12/03 09:19:35;;;;;;;46.38;33.88;;;;;;;2.07;95.21;101347.94;7388725;19;20427;-62
2023/12/03 09:22:02;;;;;;;46.28;33.95;;;;;;;2.03;95.50;101349.91;7392556;19;20371;-63
2023/12/03 09:24:30;;;;;;;45.97;34.08;;;;;;;1.98;95.79;101352.00;7392110;19;20365;-63
2023/12/03 09:26:57;;;;;;;48.85;34.55;;;;;;;1.93;95.79;101361.91;7387829;19;20999;-63
2023/12/03 09:29:24;;;;;;;49.13;35.03;;;;;;;1.86;95.98;101353.66;7392352;19;20361;-63
2023/12/03 09:31:51;;;;;;;51.60;35.88;;;;;;;1.79;96.31;101362.84;7393723;19;20987;-63
2023/12/03 09:34:22;;;;;;;49.53;35.50;;;;;;;1.77;96.79;101369.97;7391509;19;20349;-63
2023/12/03 09:36:49;;;;;;;51.67;36.03;;;;;;;1.80;97.10;101361.91;7391317;19;20721;-64
2023/12/03 09:39:16;;;;;;;52.50;35.55;;;;;;;1.83;97.05;101382.66;7393439;19;20868;-63
2023/12/03 09:41:51;;;;;;;53.03;34.95;;;;;;;1.85;96.93;101383.38;7390182;19;20356;-63
2023/12/03 09:44:27;;;;;;;52.42;35.22;;;;;;;1.91;96.52;101382.94;7390611;19;20347;-63
2023/12/03 09:46:59;;;;;;;49.80;33.53;;;;;;;1.94;96.60;101382.75;7389771;19;20344;-62
2023/12/03 09:49:29;;;;;;;50.80;33.47;;;;;;;2.02;96.08;101383.09;7390540;19;20364;-62
2023/12/03 09:52:00;;;;;;;51.10;33.78;;;;;;;2.10;95.89;101379.13;7389377;19;20415;-62
2023/12/03 09:54:28;;;;;;;47.10;31.92;;;;;;;2.11;95.12;101388.66;7391312;19;20356;-63
2023/12/03 09:56:57;;;;;;;45.67;30.92;;;;;;;2.15;94.70;101387.50;7391059;19;20361;-63
2023/12/03 09:59:26;;;;;;;42.33;30.73;;;;;;;2.22;94.13;101391.38;7390462;19;20363;-62
2023/12/03 10:01:55;;;;;;;46.90;30.95;;;;;;;2.28;93.78;101390.13;7389716;19;20361;-62
2023/12/03 10:04:22;;;;;;;45.08;31.10;;;;;;;2.34;93.87;101390.56;7391859;19;20469;-63
2023/12/03 10:06:52;;;;;;;46.33;31.63;;;;;;;2.36;93.08;101382.56;7391094;19;20352;-63
2023/12/03 10:09:19;;;;;;;45.55;30.50;;;;;;;2.41;93.02;101389.19;7391975;19;20348;-63
2023/12/03 10:11:54;;;;;;;46.42;30.75;;;;;;;2.44;92.90;101398.59;7390132;19;20368;-64
2023/12/03 10:14:21;;;;;;;42.90;29.70;;;;;;;2.39;92.24;101398.91;7391547;19;20362;-62
2023/12/03 10:16:49;;;;;;;43.58;29.73;;;;;;;2.40;92.80;101400.63;7390952;19;20367;-60
2023/12/03 10:19:27;;;;;;;41.22;28.60;;;;;;;2.41;92.14;101402.28;7391082;19;20374;-63
2023/12/03 10:21:56;;;;;;;40.30;29.75;;;;;;;2.44;92.33;101404.69;7391920;19;20364;-63
2023/12/03 10:24:23;;;;;;;43.15;29.23;;;;;;;2.43;91.93;101405.63;7392032;19;20369;-63
2023/12/03 10:27:00;;;;;;;41.43;29.17;;;;;;;2.50;92.44;101403.41;7388714;19;21296;-62
2023/12/03 10:29:28;;;;;;;40.28;28.35;;;;;;;2.52;91.87;101403.31;7391454;19;20762;-63
2023/12/03 10:31:56;;;;;;;41.83;28.92;;;;;;;2.53;92.11;101405.84;7387838;19;20376;-63
2023/12/03 10:34:24;;;;;;;40.47;28.50;;;;;;;2.55;91.86;101408.34;7390347;19;20364;-63
2023/12/03 10:36:52;;;;;;;40.58;28.75;;;;;;;2.52;91.51;101414.63;7391733;19;20353;-63
2023/12/03 10:39:19;;;;;;;40.40;29.15;;;;;;;2.51;91.47;101409.50;7397677;19;20356;-64
2023/12/03 10:41:49;;;;;;;43.38;29.15;;;;;;;2.39;91.35;101419.88;7399013;19;20408;-63
2023/12/03 10:44:23;;;;;;;41.80;30.08;;;;;;;2.37;91.45;101407.84;7397605;19;20439;-63
2023/12/03 10:46:50;;;;;;;42.22;29.20;;;;;;;2.33;91.39;101414.22;7398296;19;20368;-63
2023/12/03 10:49:20;;;;;;;44.95;29.88;;;;;;;2.30;91.70;101417.88;7397105;19;20901;-63
2023/12/03 10:51:47;;;;;;;44.30;29.58;;;;;;;2.28;91.55;101421.56;7397793;19;20766;-63
2023/12/03 10:54:15;;;;;;;40.47;29.20;;;;;;;2.28;91.81;101422.38;7399463;19;20375;-63
2023/12/03 10:56:49;;;;;;;44.70;31.23;;;;;;;2.27;91.57;101425.94;7396240;19;20899;-63
2023/12/03 10:59:21;;;;;;;45.65;30.33;;;;;;;2.29;91.64;101423.22;7395596;19;20360;-63
2023/12/03 11:01:54;;;;;;;43.08;29.75;;;;;;;2.30;91.62;101419.66;7396391;19;20368;-63
2023/12/03 11:04:54;;;;;;;40.05;29.05;;;;;;;2.35;91.26;101421.00;7396674;19;20360;-63
2023/12/03 11:07:21;;;;;;;41.10;28.57;;;;;;;2.36;91.08;101414.84;7396283;19;20359;-63
2023/12/03 11:09:49;;;;;;;39.30;28.42;;;;;;;2.43;91.03;101410.88;7397547;19;21122;-63
2023/12/03 11:12:19;;;;;;;39.13;28.23;;;;;;;2.54;90.73;101422.41;7395809;19;20343;-63
2023/12/03 11:14:47;;;;;;;38.47;27.55;;;;;;;2.64;90.64;101420.81;7395344;19;20371;-63
2023/12/03 11:17:30;;;;;;;39.17;27.90;;;;;;;2.77;90.47;101413.78;7393275;19;20344;-63
2023/12/03 11:20:12;;;;;;;38.22;27.67;;;;;;;2.92;90.11;101416.28;7395805;19;20356;-64
2023/12/03 11:23:01;;;;;;;37.47;27.27;;;;;;;2.98;89.38;101419.31;7397761;19;20888;-63